createdAt,value
2019-02-21T00:00:26.262Z,92.76
2019-02-21T00:01:26.285Z,93.89
2019-02-21T00:02:26.303Z,93.80
2019-02-21T00:03:26.329Z,94.56
2019-02-21T00:04:26.348Z,94.84
2019-02-21T00:05:26.377Z,95.59
2019-02-21T00:06:26.393Z,95.03
2019-02-21T00:07:26.419Z,94.74
2019-02-21T00:08:26.446Z,94.46
2019-02-21T00:09:26.467Z,95.12
2019-02-21T00:10:26.484Z,95.59
2019-02-21T00:11:26.506Z,95.68
2019-02-21T00:12:26.529Z,95.40
2019-02-21T00:13:26.551Z,94.37
2019-02-21T00:14:26.573Z,94.56
2019-02-21T00:15:26.601Z,93.42
2019-02-21T00:16:26.621Z,94.27
2019-02-21T00:17:26.647Z,94.18
2019-02-21T00:18:26.672Z,93.99
2019-02-21T00:19:26.688Z,93.51
2019-02-21T00:20:26.712Z,92.85
2019-02-21T00:21:26.734Z,92.85
2019-02-21T00:22:26.759Z,93.13
2019-02-21T00:23:26.778Z,93.89
2019-02-21T00:24:26.799Z,93.61
2019-02-21T00:25:26.825Z,93.70
2019-02-21T00:26:26.850Z,93.61
2019-02-21T00:27:26.867Z,92.85
2019-02-21T00:28:26.895Z,93.04
2019-02-21T00:29:26.916Z,92.57
2019-02-21T00:30:34.917Z,93.89
2019-02-21T00:31:26.966Z,93.70
2019-02-21T00:32:26.983Z,94.08
2019-02-21T00:33:27.004Z,94.37
2019-02-21T00:34:27.028Z,94.74
2019-02-21T00:35:27.051Z,95.21
2019-02-21T00:36:27.081Z,95.68
2019-02-21T00:37:27.094Z,95.78
2019-02-21T00:38:27.118Z,95.78
2019-02-21T00:39:27.141Z,96.06
2019-02-21T00:40:27.164Z,96.44
2019-02-21T00:41:27.189Z,96.82
2019-02-21T00:42:27.212Z,96.54
2019-02-21T00:43:27.245Z,95.78
2019-02-21T00:44:27.269Z,95.78
2019-02-21T00:45:27.281Z,93.80
2019-02-21T00:46:27.301Z,92.00
2019-02-21T00:47:27.324Z,91.91
2019-02-21T00:48:27.350Z,91.06
2019-02-21T00:49:27.381Z,90.59
2019-02-21T00:50:27.395Z,91.06
2019-02-21T00:51:27.420Z,90.87
2019-02-21T00:52:27.440Z,92.10
2019-02-21T00:53:27.461Z,92.66
2019-02-21T00:54:27.484Z,93.04
2019-02-21T00:55:27.989Z,92.76
2019-02-21T00:56:27.533Z,92.76
2019-02-21T00:57:27.554Z,93.80
2019-02-21T00:58:27.579Z,92.66
2019-02-21T00:59:27.599Z,92.29
2019-02-21T01:00:27.624Z,92.00
2019-02-21T01:01:27.645Z,91.82
2019-02-21T01:02:27.671Z,91.63
2019-02-21T01:03:27.693Z,91.82
2019-02-21T01:04:27.716Z,92.66
2019-02-21T01:05:27.736Z,92.76
2019-02-21T01:06:27.759Z,92.38
2019-02-21T01:07:27.783Z,92.85
2019-02-21T01:08:27.805Z,93.89
2019-02-21T01:09:27.827Z,93.51
2019-02-21T01:10:27.851Z,93.89
2019-02-21T01:11:27.881Z,93.61
2019-02-21T01:12:27.901Z,94.65
2019-02-21T01:13:27.922Z,94.74
2019-02-21T01:14:27.942Z,94.46
2019-02-21T01:15:28.005Z,94.37
2019-02-21T01:16:27.993Z,93.70
2019-02-21T01:17:28.014Z,93.70
2019-02-21T01:18:28.035Z,92.85
2019-02-21T01:19:28.056Z,93.80
2019-02-21T01:20:28.082Z,93.23
2019-02-21T01:21:28.105Z,93.32
2019-02-21T01:22:28.125Z,94.08
2019-02-21T01:23:28.215Z,94.46
2019-02-21T01:24:28.174Z,94.84
2019-02-21T01:25:28.193Z,94.74
2019-02-21T01:26:28.216Z,94.37
2019-02-21T01:27:28.239Z,94.08
2019-02-21T01:28:28.265Z,94.08
2019-02-21T01:29:28.285Z,92.57
2019-02-21T01:30:28.307Z,92.94
2019-02-21T01:31:28.336Z,92.57
2019-02-21T01:32:28.356Z,91.72
2019-02-21T01:33:28.380Z,92.57
2019-02-21T01:34:28.398Z,92.85
2019-02-21T01:35:28.423Z,92.57
2019-02-21T01:36:28.443Z,92.57
2019-02-21T01:37:28.466Z,92.10
2019-02-21T01:38:28.491Z,90.68
2019-02-21T01:39:28.514Z,90.87
2019-02-21T01:40:28.533Z,91.53
2019-02-21T01:41:28.557Z,91.82
2019-02-21T01:42:28.578Z,91.82
2019-02-21T01:43:28.601Z,91.53
2019-02-21T01:44:28.630Z,92.29
2019-02-21T01:45:28.648Z,93.61
2019-02-21T01:46:28.669Z,94.56
2019-02-21T01:47:28.693Z,94.65
2019-02-21T01:48:29.637Z,95.21
2019-02-21T01:49:28.738Z,95.31
2019-02-21T01:50:28.759Z,95.31
2019-02-21T01:51:28.787Z,95.87
2019-02-21T01:52:28.806Z,95.40
2019-02-21T01:53:28.828Z,95.12
2019-02-21T01:54:28.852Z,95.21
2019-02-21T01:55:28.874Z,95.78
2019-02-21T01:56:28.901Z,95.59
2019-02-21T01:57:28.920Z,95.68
2019-02-21T01:58:28.942Z,95.21
2019-02-21T01:59:28.967Z,94.74
2019-02-21T02:00:28.990Z,94.84
2019-02-21T02:01:29.011Z,94.74
2019-02-21T02:02:29.033Z,94.46
2019-02-21T02:03:29.059Z,94.56
2019-02-21T02:04:29.082Z,94.84
2019-02-21T02:05:29.102Z,94.60
2019-02-21T02:06:29.127Z,94.60
2019-02-21T02:07:29.148Z,94.46
2019-02-21T02:08:29.170Z,93.51
2019-02-21T02:09:29.197Z,93.80
2019-02-21T02:10:29.218Z,93.42
2019-02-21T02:11:29.241Z,93.04
2019-02-21T02:12:29.262Z,93.75
2019-02-21T02:13:29.287Z,93.28
2019-02-21T02:14:29.306Z,93.18
2019-02-21T02:15:29.331Z,93.56
2019-02-21T02:16:29.351Z,93.28
2019-02-21T02:17:29.379Z,93.51
2019-02-21T02:18:29.398Z,93.23
2019-02-21T02:19:29.418Z,94.18
2019-02-21T02:20:29.441Z,93.89
2019-02-21T02:21:29.464Z,93.99
2019-02-21T02:22:29.488Z,94.13
2019-02-21T02:23:29.511Z,94.41
2019-02-21T02:24:29.533Z,94.51
2019-02-21T02:25:29.553Z,93.94
2019-02-21T02:26:29.577Z,94.70
2019-02-21T02:27:29.608Z,94.41
2019-02-21T02:28:29.624Z,94.89
2019-02-21T02:29:29.642Z,94.98
2019-02-21T02:30:29.684Z,95.45
2019-02-21T02:31:29.691Z,95.17
2019-02-21T02:32:29.713Z,95.83
2019-02-21T02:33:29.733Z,95.92
2019-02-21T02:34:29.759Z,94.89
2019-02-21T02:35:29.781Z,95.92
2019-02-21T02:36:29.803Z,95.07
2019-02-21T02:37:29.824Z,94.70
2019-02-21T02:38:29.898Z,94.41
2019-02-21T02:39:29.871Z,94.22
2019-02-21T02:40:29.892Z,94.22
2019-02-21T02:41:29.915Z,95.17
2019-02-21T02:42:29.938Z,95.07
2019-02-21T02:43:29.957Z,95.26
2019-02-21T02:44:30.043Z,95.73
2019-02-21T02:45:30.002Z,95.36
2019-02-21T02:46:30.030Z,96.01
2019-02-21T02:47:30.053Z,95.17
2019-02-21T02:48:30.071Z,94.79
2019-02-21T02:49:30.096Z,95.07
2019-02-21T02:50:30.114Z,95.26
2019-02-21T02:51:30.138Z,95.54
2019-02-21T02:52:30.161Z,95.54
2019-02-21T02:53:30.182Z,95.07
2019-02-21T02:54:30.205Z,94.79
2019-02-21T02:55:30.227Z,94.32
2019-02-21T02:56:30.266Z,94.41
2019-02-21T02:57:30.270Z,93.66
2019-02-21T02:58:30.293Z,94.22
2019-02-21T02:59:40.376Z,93.28
2019-02-21T03:00:30.342Z,93.84
2019-02-21T03:01:34.927Z,94.60
2019-02-21T03:02:30.382Z,95.26
2019-02-21T03:03:30.406Z,95.45
2019-02-21T03:04:30.477Z,95.73
2019-02-21T03:05:30.449Z,95.54
2019-02-21T03:06:30.473Z,94.51
2019-02-21T03:07:30.498Z,94.22
2019-02-21T03:08:30.515Z,93.94
2019-02-21T03:09:30.536Z,93.75
2019-02-21T03:10:30.559Z,94.22
2019-02-21T03:11:30.584Z,94.79
2019-02-21T03:12:30.607Z,94.60
2019-02-21T03:13:30.627Z,95.26
2019-02-21T03:14:30.652Z,95.17
2019-02-21T03:15:30.677Z,96.49
2019-02-21T03:16:30.696Z,96.20
2019-02-21T03:17:30.713Z,96.30
2019-02-21T03:18:30.738Z,96.68
2019-02-21T03:19:30.760Z,96.68
2019-02-21T03:20:30.807Z,97.34
2019-02-21T03:21:30.804Z,96.58
2019-02-21T03:22:30.826Z,97.05
2019-02-21T03:23:30.848Z,97.05
2019-02-21T03:24:30.874Z,97.72
2019-02-21T03:25:30.891Z,97.43
2019-02-21T03:26:30.917Z,97.53
2019-02-21T03:27:30.941Z,97.34
2019-02-21T03:28:30.958Z,98.19
2019-02-21T03:29:30.983Z,97.91
2019-02-21T03:30:31.013Z,98.10
2019-02-21T03:31:31.035Z,98.00
2019-02-21T03:32:31.088Z,98.10
2019-02-21T03:33:31.090Z,98.75
2019-02-21T03:34:31.092Z,98.66
2019-02-21T03:35:31.142Z,98.94
2019-02-21T03:36:31.139Z,98.38
2019-02-21T03:37:31.203Z,98.57
2019-02-21T03:38:34.846Z,97.62
2019-02-21T03:39:31.206Z,97.72
2019-02-21T03:40:31.225Z,98.19
2019-02-21T03:41:31.247Z,98.38
2019-02-21T03:42:31.270Z,98.94
2019-02-21T03:43:31.291Z,99.22
2019-02-21T03:44:31.318Z,98.85
2019-02-21T03:45:31.341Z,98.47
2019-02-21T03:46:31.362Z,98.66
2019-02-21T03:47:31.585Z,98.94
2019-02-21T03:48:31.409Z,98.94
2019-02-21T03:49:31.424Z,99.13
2019-02-21T03:50:31.448Z,98.94
2019-02-21T03:51:31.494Z,99.70
2019-02-21T03:52:31.495Z,99.88
2019-02-21T03:53:31.518Z,99.79
2019-02-21T03:54:31.535Z,99.99
2019-02-21T03:55:31.564Z,99.99
2019-02-21T03:56:31.584Z,99.99
2019-02-21T03:57:31.602Z,99.99
2019-02-21T03:58:31.623Z,99.99
2019-02-21T03:59:31.714Z,99.99
2019-02-21T04:00:31.684Z,99.99
2019-02-21T04:01:31.692Z,99.99
2019-02-21T04:02:31.716Z,99.99
2019-02-21T04:03:31.741Z,99.99
2019-02-21T04:04:31.756Z,99.99
2019-02-21T04:05:31.779Z,99.99
2019-02-21T04:06:31.907Z,99.99
2019-02-21T04:07:31.831Z,99.99
2019-02-21T04:08:31.849Z,99.99
2019-02-21T04:09:31.866Z,99.99
2019-02-21T04:10:31.888Z,99.99
2019-02-21T04:11:31.912Z,99.99
2019-02-21T04:12:31.937Z,99.99
2019-02-21T04:13:31.957Z,99.99
2019-02-21T04:14:31.977Z,99.99
2019-02-21T04:15:32.001Z,99.99
2019-02-21T04:16:32.024Z,99.99
2019-02-21T04:17:32.046Z,99.99
2019-02-21T04:18:32.069Z,99.99
2019-02-21T04:19:32.090Z,99.99
2019-02-21T04:20:32.113Z,99.99
2019-02-21T04:21:32.133Z,99.99
2019-02-21T04:22:32.160Z,99.99
2019-02-21T04:23:32.177Z,99.99
2019-02-21T04:24:32.203Z,99.99
2019-02-21T04:25:32.222Z,99.99
2019-02-21T04:26:32.246Z,99.99
2019-02-21T04:27:32.271Z,99.99
2019-02-21T04:28:32.309Z,99.99
2019-02-21T04:29:32.311Z,99.99
2019-02-21T04:30:32.338Z,99.99
2019-02-21T04:31:32.359Z,99.99
2019-02-21T04:32:32.384Z,99.99
2019-02-21T04:33:34.441Z,99.99
2019-02-21T04:34:32.422Z,99.99
2019-02-21T04:35:32.446Z,99.99
2019-02-21T04:36:32.476Z,99.99
2019-02-21T04:37:32.488Z,99.99
2019-02-21T04:38:32.513Z,99.99
2019-02-21T04:39:32.535Z,99.99
2019-02-21T04:40:32.569Z,99.99
2019-02-21T04:41:32.579Z,99.99
2019-02-21T04:42:32.600Z,99.99
2019-02-21T04:43:32.624Z,99.99
2019-02-21T04:44:32.647Z,99.99
2019-02-21T04:45:32.670Z,99.99
2019-02-21T04:46:32.691Z,99.99
2019-02-21T04:47:32.716Z,99.99
2019-02-21T04:48:32.741Z,99.99
2019-02-21T04:49:32.760Z,99.99
2019-02-21T04:50:32.788Z,99.99
2019-02-21T04:51:32.813Z,99.99
2019-02-21T04:52:32.830Z,99.99
2019-02-21T04:53:32.856Z,99.99
2019-02-21T04:54:32.872Z,99.99
2019-02-21T04:55:32.895Z,99.99
2019-02-21T04:56:32.917Z,99.99
2019-02-21T04:57:32.936Z,99.99
2019-02-21T04:58:32.963Z,99.99
2019-02-21T04:59:32.981Z,99.99
2019-02-21T05:00:33.002Z,99.99
2019-02-21T05:01:33.033Z,99.99
2019-02-21T05:02:33.047Z,99.99
2019-02-21T05:03:33.073Z,99.99
2019-02-21T05:04:33.094Z,99.99
2019-02-21T05:05:33.113Z,99.99
2019-02-21T05:06:33.138Z,99.99
2019-02-21T05:07:33.160Z,99.99
2019-02-21T05:08:33.181Z,99.99
2019-02-21T05:09:33.204Z,99.99
2019-02-21T05:10:33.229Z,99.99
2019-02-21T05:11:33.252Z,99.99
2019-02-21T05:12:33.270Z,99.99
2019-02-21T05:13:34.008Z,99.99
2019-02-21T05:14:33.317Z,99.99
2019-02-21T05:15:33.341Z,99.99
2019-02-21T05:16:33.360Z,99.99
2019-02-21T05:17:33.383Z,99.99
2019-02-21T05:18:33.407Z,99.99
2019-02-21T05:19:33.430Z,99.99
2019-02-21T05:20:33.452Z,99.99
2019-02-21T05:21:33.474Z,99.99
2019-02-21T05:22:33.498Z,99.99
2019-02-21T05:23:33.520Z,99.99
2019-02-21T05:24:33.540Z,99.99
2019-02-21T05:25:33.563Z,99.99
2019-02-21T05:26:33.586Z,99.99
2019-02-21T05:27:33.606Z,99.99
2019-02-21T05:28:33.631Z,99.99
2019-02-21T05:29:33.660Z,99.99
2019-02-21T05:30:36.253Z,99.99
2019-02-21T05:31:33.699Z,99.99
2019-02-21T05:32:41.020Z,99.99
2019-02-21T05:33:33.740Z,99.99
2019-02-21T05:34:33.761Z,99.99
2019-02-21T05:35:33.787Z,99.99
2019-02-21T05:36:33.807Z,99.99
2019-02-21T05:37:33.827Z,99.99
2019-02-21T05:38:33.861Z,99.99
2019-02-21T05:39:33.873Z,99.99
2019-02-21T05:40:33.906Z,99.99
2019-02-21T05:41:33.922Z,99.99
2019-02-21T05:42:33.943Z,99.99
2019-02-21T05:43:33.963Z,99.99
2019-02-21T05:44:33.986Z,99.99
2019-02-21T05:45:34.021Z,99.99
2019-02-21T05:46:34.084Z,99.99
2019-02-21T05:47:34.053Z,99.99
2019-02-21T05:48:34.073Z,99.99
2019-02-21T05:49:34.093Z,99.99
2019-02-21T05:50:34.121Z,99.99
2019-02-21T05:51:34.139Z,99.99
2019-02-21T05:52:34.165Z,99.99
2019-02-21T05:53:34.188Z,99.99
2019-02-21T05:54:34.205Z,99.99
2019-02-21T05:55:34.229Z,99.99
2019-02-21T05:56:34.252Z,99.99
2019-02-21T05:57:34.273Z,99.99
2019-02-21T05:58:34.294Z,99.99
2019-02-21T05:59:34.316Z,99.99
2019-02-21T06:00:36.738Z,99.99
2019-02-21T06:01:34.366Z,99.99
2019-02-21T06:02:34.384Z,99.99
2019-02-21T06:03:35.973Z,99.88
2019-02-21T06:04:34.433Z,99.41
2019-02-21T06:05:34.452Z,99.60
2019-02-21T06:06:34.479Z,99.04
2019-02-21T06:07:34.497Z,99.32
2019-02-21T06:08:34.521Z,98.43
2019-02-21T06:09:34.540Z,97.86
2019-02-21T06:10:34.563Z,97.96
2019-02-21T06:11:35.252Z,97.58
2019-02-21T06:12:34.613Z,97.86
2019-02-21T06:13:34.634Z,96.82
2019-02-21T06:14:34.656Z,96.63
2019-02-21T06:15:34.677Z,96.06
2019-02-21T06:16:34.702Z,94.65
2019-02-21T06:17:34.726Z,94.56
2019-02-21T06:18:34.748Z,93.99
2019-02-21T06:19:34.770Z,93.09
2019-02-21T06:20:34.794Z,92.14
2019-02-21T06:21:34.818Z,91.10
2019-02-21T06:22:34.843Z,88.74
2019-02-21T06:23:34.865Z,87.37
2019-02-21T06:24:34.888Z,86.80
2019-02-21T06:25:34.911Z,85.24
2019-02-21T06:26:34.932Z,82.50
2019-02-21T06:27:34.957Z,81.17
2019-02-21T06:28:34.980Z,80.13
2019-02-21T06:29:35.013Z,79.69
2019-02-21T06:30:35.030Z,77.76
2019-02-21T06:31:35.058Z,77.67
2019-02-21T06:32:35.078Z,77.89
2019-02-21T06:33:35.103Z,77.76
2019-02-21T06:34:35.186Z,77.86
2019-02-21T06:35:35.150Z,77.80
2019-02-21T06:36:35.197Z,77.39
2019-02-21T06:37:37.696Z,77.67
2019-02-21T06:38:35.226Z,77.29
2019-02-21T06:39:35.251Z,78.52
2019-02-21T06:40:36.588Z,78.80
2019-02-21T06:41:35.303Z,78.33
2019-02-21T06:42:35.327Z,78.14
2019-02-21T06:43:35.354Z,77.58
2019-02-21T06:44:37.928Z,78.42
2019-02-21T06:45:35.410Z,78.23
2019-02-21T06:46:35.433Z,77.86
2019-02-21T06:47:35.461Z,77.76
2019-02-21T06:48:35.482Z,77.29
2019-02-21T06:49:35.510Z,76.44
2019-02-21T06:50:35.539Z,76.34
2019-02-21T06:51:35.563Z,77.10
2019-02-21T06:52:35.585Z,78.39
2019-02-21T06:53:35.655Z,79.14
2019-02-21T06:54:35.637Z,79.99
2019-02-21T06:55:35.662Z,80.65
2019-02-21T06:56:35.697Z,79.71
2019-02-21T06:57:35.718Z,79.80
2019-02-21T06:58:35.746Z,79.14
2019-02-21T06:59:42.435Z,78.48
2019-02-21T07:00:35.794Z,79.05
2019-02-21T07:01:35.817Z,79.05
2019-02-21T07:02:35.914Z,80.14
2019-02-21T07:03:35.872Z,81.09
2019-02-21T07:04:35.897Z,80.80
2019-02-21T07:05:36.998Z,80.90
2019-02-21T07:06:35.947Z,81.56
2019-02-21T07:07:35.976Z,81.09
2019-02-21T07:08:36.003Z,80.99
2019-02-21T07:09:36.027Z,80.24
2019-02-21T07:10:36.050Z,80.24
2019-02-21T07:11:36.075Z,80.62
2019-02-21T07:12:36.102Z,80.43
2019-02-21T07:13:36.130Z,81.22
2019-02-21T07:14:36.152Z,78.86
2019-02-21T07:15:36.179Z,77.15
2019-02-21T07:16:37.396Z,74.93
2019-02-21T07:17:36.229Z,71.84
2019-02-21T07:18:36.256Z,69.38
2019-02-21T07:19:36.280Z,68.62
2019-02-21T07:20:36.306Z,68.84
2019-02-21T07:21:36.703Z,67.43
2019-02-21T07:22:36.360Z,66.13
2019-02-21T07:23:43.525Z,63.95
2019-02-21T07:24:38.398Z,61.93
2019-02-21T07:25:36.437Z,63.29
2019-02-21T07:26:36.465Z,63.73
2019-02-21T07:27:36.492Z,66.00
2019-02-21T07:28:36.523Z,66.60
2019-02-21T07:29:38.723Z,65.75
2019-02-21T07:30:36.574Z,64.81
2019-02-21T07:31:36.604Z,65.15
2019-02-21T07:32:36.630Z,66.28
2019-02-21T07:33:36.655Z,65.91
2019-02-21T07:34:36.686Z,65.91
2019-02-21T07:35:36.715Z,66.41
2019-02-21T07:36:36.746Z,66.57
2019-02-21T07:37:36.775Z,66.16
2019-02-21T07:38:36.798Z,67.30
2019-02-21T07:39:36.829Z,69.00
2019-02-21T07:40:36.857Z,69.19
2019-02-21T07:41:36.881Z,68.71
2019-02-21T07:42:36.911Z,66.92
2019-02-21T07:43:36.956Z,66.63
2019-02-21T07:44:36.968Z,66.92
2019-02-21T07:45:36.995Z,68.30
2019-02-21T07:46:37.024Z,69.72
2019-02-21T07:47:37.054Z,71.14
2019-02-21T07:48:37.081Z,71.99
2019-02-21T07:49:37.110Z,74.26
2019-02-21T07:50:37.139Z,73.88
2019-02-21T07:51:37.165Z,74.93
2019-02-21T07:52:37.191Z,75.21
2019-02-21T07:53:37.231Z,75.36
2019-02-21T07:54:37.247Z,75.21
2019-02-21T07:55:37.283Z,74.04
2019-02-21T07:56:42.077Z,73.56
2019-02-21T07:57:37.332Z,74.04
2019-02-21T07:58:39.542Z,74.74
2019-02-21T07:59:37.387Z,74.45
2019-02-21T08:00:37.413Z,75.02
2019-02-21T08:01:37.443Z,74.36
2019-02-21T08:02:37.470Z,74.45
2019-02-21T08:03:44.211Z,74.55
2019-02-21T08:04:37.533Z,74.74
2019-02-21T08:05:37.551Z,74.07
2019-02-21T08:06:37.579Z,74.98
2019-02-21T08:07:37.605Z,74.69
2019-02-21T08:08:37.634Z,74.69
2019-02-21T08:09:37.659Z,74.60
2019-02-21T08:10:37.686Z,74.51
2019-02-21T08:11:37.715Z,74.98
2019-02-21T08:12:40.433Z,74.79
2019-02-21T08:13:37.768Z,74.69
2019-02-21T08:14:37.797Z,75.36
2019-02-21T08:15:37.824Z,74.98
2019-02-21T08:16:37.855Z,75.17
2019-02-21T08:17:37.877Z,75.17
2019-02-21T08:18:37.906Z,74.32
2019-02-21T08:19:37.933Z,75.55
2019-02-21T08:20:40.887Z,75.36
2019-02-21T08:21:38.108Z,75.36
2019-02-21T08:22:38.016Z,75.17
2019-02-21T08:23:38.042Z,74.41
2019-02-21T08:24:38.071Z,75.17
2019-02-21T08:25:38.095Z,75.74
2019-02-21T08:26:38.122Z,76.50
2019-02-21T08:27:38.148Z,76.40
2019-02-21T08:28:38.176Z,75.83
2019-02-21T08:29:38.204Z,76.06
2019-02-21T08:30:38.232Z,75.21
2019-02-21T08:31:38.255Z,75.31
2019-02-21T08:32:38.282Z,74.45
2019-02-21T08:33:38.309Z,74.55
2019-02-21T08:34:38.344Z,74.02
2019-02-21T08:35:38.363Z,72.88
2019-02-21T08:36:38.392Z,71.93
2019-02-21T08:37:38.422Z,72.22
2019-02-21T08:38:38.447Z,72.12
2019-02-21T08:39:38.473Z,71.93
2019-02-21T08:40:38.501Z,71.93
2019-02-21T08:41:38.542Z,72.12
2019-02-21T08:42:38.564Z,72.03
2019-02-21T08:43:38.586Z,72.12
2019-02-21T08:44:38.613Z,71.93
2019-02-21T08:45:38.640Z,72.03
2019-02-21T08:46:38.667Z,71.12
2019-02-21T08:47:38.697Z,69.79
2019-02-21T08:48:40.510Z,69.51
2019-02-21T08:49:38.758Z,69.03
2019-02-21T08:50:38.791Z,67.52
2019-02-21T08:51:38.813Z,66.22
2019-02-21T08:52:38.841Z,65.37
2019-02-21T08:53:38.869Z,65.84
2019-02-21T08:54:38.898Z,64.71
2019-02-21T08:55:40.477Z,63.13
2019-02-21T08:56:38.962Z,62.94
2019-02-21T08:57:38.986Z,61.90
2019-02-21T08:58:39.018Z,61.96
2019-02-21T08:59:39.048Z,62.37
2019-02-21T09:00:39.081Z,61.11
2019-02-21T09:01:39.110Z,61.87
2019-02-21T09:02:39.137Z,62.78
2019-02-21T09:03:39.171Z,65.15
2019-02-21T09:04:39.197Z,65.34
2019-02-21T09:05:39.232Z,65.63
2019-02-21T09:06:39.263Z,66.00
2019-02-21T09:07:39.288Z,66.00
2019-02-21T09:08:39.322Z,66.19
2019-02-21T09:09:39.350Z,66.00
2019-02-21T09:10:39.388Z,66.47
2019-02-21T09:11:39.410Z,65.84
2019-02-21T09:12:39.438Z,65.37
2019-02-21T09:13:41.591Z,64.61
2019-02-21T09:14:39.503Z,64.14
2019-02-21T09:15:39.530Z,63.39
2019-02-21T09:16:39.564Z,62.24
2019-02-21T09:17:39.595Z,62.47
2019-02-21T09:18:39.623Z,61.77
2019-02-21T09:19:39.660Z,62.82
2019-02-21T09:20:39.684Z,64.49
2019-02-21T09:21:39.715Z,66.38
2019-02-21T09:22:39.746Z,66.57
2019-02-21T09:23:39.777Z,66.28
2019-02-21T09:24:42.372Z,66.38
2019-02-21T09:25:39.842Z,64.77
2019-02-21T09:26:39.883Z,64.68
2019-02-21T09:27:39.905Z,63.85
2019-02-21T09:28:39.931Z,62.34
2019-02-21T09:29:39.965Z,60.89
2019-02-21T09:30:39.995Z,61.36
2019-02-21T09:31:40.027Z,60.44
2019-02-21T09:32:41.963Z,58.74
2019-02-21T09:33:40.091Z,57.89
2019-02-21T09:34:40.121Z,57.04
2019-02-21T09:35:40.151Z,57.60
2019-02-21T09:36:40.180Z,57.51
2019-02-21T09:37:40.209Z,57.60
2019-02-21T09:38:40.244Z,57.57
2019-02-21T09:39:40.318Z,58.14
2019-02-21T09:40:42.657Z,58.55
2019-02-21T09:41:40.336Z,57.98
2019-02-21T09:42:40.365Z,57.60
2019-02-21T09:43:40.395Z,56.40
2019-02-21T09:44:40.430Z,53.18
2019-02-21T09:45:42.293Z,51.47
2019-02-21T09:46:40.646Z,52.42
2019-02-21T09:47:40.524Z,53.56
2019-02-21T09:48:40.577Z,54.03
2019-02-21T09:49:40.592Z,54.69
2019-02-21T09:50:40.617Z,54.98
2019-02-21T09:51:40.650Z,55.07
2019-02-21T09:52:40.686Z,54.38
2019-02-21T09:53:40.714Z,53.56
2019-02-21T09:54:40.748Z,53.25
2019-02-21T09:55:40.779Z,53.81
2019-02-21T09:56:40.814Z,54.38
2019-02-21T09:57:40.841Z,55.24
2019-02-21T09:58:40.873Z,55.30
2019-02-21T09:59:40.904Z,56.27
2019-02-21T10:00:40.940Z,55.30
2019-02-21T10:01:40.971Z,54.64
2019-02-21T10:02:42.110Z,54.38
2019-02-21T10:03:41.032Z,52.08
2019-02-21T10:04:41.064Z,50.31
2019-02-21T10:05:41.098Z,47.02
2019-02-21T10:06:41.128Z,43.79
2019-02-21T10:07:41.159Z,41.52
2019-02-21T10:08:41.193Z,39.81
2019-02-21T10:09:41.223Z,40.08
2019-02-21T10:10:41.262Z,40.08
2019-02-21T10:11:41.289Z,40.95
2019-02-21T10:12:41.320Z,41.40
2019-02-21T10:13:41.352Z,41.42
2019-02-21T10:14:41.385Z,42.25
2019-02-21T10:15:41.416Z,41.89
2019-02-21T10:16:41.469Z,41.52
2019-02-21T10:17:41.483Z,41.05
2019-02-21T10:18:41.513Z,41.31
2019-02-21T10:19:41.547Z,41.50
2019-02-21T10:20:41.577Z,41.31
2019-02-21T10:21:41.609Z,41.97
2019-02-21T10:22:41.643Z,42.63
2019-02-21T10:23:42.225Z,42.54
2019-02-21T10:24:41.706Z,43.01
2019-02-21T10:25:41.739Z,42.73
2019-02-21T10:26:41.781Z,42.73
2019-02-21T10:27:41.802Z,42.92
2019-02-21T10:28:41.832Z,42.99
2019-02-21T10:29:41.866Z,43.37
2019-02-21T10:30:41.896Z,43.96
2019-02-21T10:31:41.928Z,44.24
2019-02-21T10:32:41.963Z,44.62
2019-02-21T10:33:47.145Z,43.58
2019-02-21T10:34:43.269Z,42.71
2019-02-21T10:35:42.055Z,42.63
2019-02-21T10:36:42.085Z,42.07
2019-02-21T10:37:42.122Z,41.40
2019-02-21T10:38:42.147Z,41.69
2019-02-21T10:39:42.183Z,42.63
2019-02-21T10:40:42.212Z,42.25
2019-02-21T10:41:42.244Z,42.54
2019-02-21T10:42:42.274Z,42.71
2019-02-21T10:43:42.307Z,43.27
2019-02-21T10:44:42.338Z,44.32
2019-02-21T10:45:47.890Z,44.43
2019-02-21T10:46:42.432Z,43.77
2019-02-21T10:47:42.433Z,42.73
2019-02-21T10:48:42.465Z,42.54
2019-02-21T10:49:42.496Z,42.63
2019-02-21T10:50:42.527Z,41.69
2019-02-21T10:51:42.560Z,41.21
2019-02-21T10:52:42.592Z,41.12
2019-02-21T10:53:42.622Z,42.71
2019-02-21T10:54:42.856Z,44.22
2019-02-21T10:55:42.686Z,44.70
2019-02-21T10:56:42.718Z,44.96
2019-02-21T10:57:45.309Z,45.07
2019-02-21T10:58:42.781Z,43.49
2019-02-21T10:59:46.533Z,43.01
2019-02-21T11:00:42.842Z,42.73
2019-02-21T11:01:42.874Z,41.69
2019-02-21T11:02:42.909Z,41.89
2019-02-21T11:03:42.938Z,41.24
2019-02-21T11:04:54.132Z,40.95
2019-02-21T11:05:42.999Z,39.90
2019-02-21T11:06:43.027Z,40.19
2019-02-21T11:07:43.062Z,40.09
2019-02-21T11:08:43.090Z,40.47
2019-02-21T11:09:43.123Z,40.31
2019-02-21T11:10:43.155Z,38.01
2019-02-21T11:11:43.187Z,37.54
2019-02-21T11:12:43.218Z,37.82
2019-02-21T11:13:43.249Z,38.29
2019-02-21T11:14:47.446Z,39.72
2019-02-21T11:15:43.313Z,40.00
2019-02-21T11:16:43.349Z,39.24
2019-02-21T11:17:43.386Z,38.67
2019-02-21T11:18:43.411Z,38.86
2019-02-21T11:19:43.444Z,39.05
2019-02-21T11:20:43.479Z,40.00
2019-02-21T11:21:43.508Z,40.76
2019-02-21T11:22:43.569Z,40.76
2019-02-21T11:23:43.579Z,41.05
2019-02-21T11:24:43.604Z,41.14
2019-02-21T11:25:43.639Z,41.61
2019-02-21T11:26:43.670Z,41.89
2019-02-21T11:27:43.708Z,42.37
2019-02-21T11:28:43.734Z,43.01
2019-02-21T11:29:43.764Z,44.22
2019-02-21T11:30:43.797Z,45.55
2019-02-21T11:31:43.828Z,46.23
2019-02-21T11:32:43.860Z,45.45
2019-02-21T11:33:43.895Z,45.67
2019-02-21T11:34:43.923Z,46.42
2019-02-21T11:35:43.954Z,45.57
2019-02-21T11:36:43.989Z,45.67
2019-02-21T11:37:46.801Z,45.57
2019-02-21T11:38:44.051Z,44.72
2019-02-21T11:39:44.081Z,44.43
2019-02-21T11:40:44.113Z,44.36
2019-02-21T11:41:44.144Z,42.73
2019-02-21T11:42:44.178Z,42.37
2019-02-21T11:43:44.213Z,41.69
2019-02-21T11:44:44.239Z,41.88
2019-02-21T11:45:53.414Z,41.69
2019-02-21T11:46:44.305Z,42.44
2019-02-21T11:47:44.337Z,42.73
2019-02-21T11:48:44.369Z,43.51
2019-02-21T11:49:44.396Z,43.60
2019-02-21T11:50:44.431Z,42.63
2019-02-21T11:51:44.464Z,42.54
2019-02-21T11:52:44.495Z,42.92
2019-02-21T11:53:44.525Z,43.13
2019-02-21T11:54:44.555Z,42.54
2019-02-21T11:55:44.587Z,43.49
2019-02-21T11:56:44.623Z,45.72
2019-02-21T11:57:44.650Z,48.72
2019-02-21T11:58:44.688Z,50.99
2019-02-21T11:59:44.720Z,53.52
2019-02-21T12:00:44.746Z,55.22
2019-02-21T12:01:44.778Z,53.33
2019-02-21T12:02:44.806Z,52.00
2019-02-21T12:03:44.838Z,51.43
2019-02-21T12:04:44.868Z,50.61
2019-02-21T12:05:44.897Z,49.66
2019-02-21T12:06:44.926Z,47.77
2019-02-21T12:07:44.956Z,46.36
2019-02-21T12:08:44.987Z,45.22
2019-02-21T12:09:45.013Z,45.12
2019-02-21T12:10:45.043Z,45.43
2019-02-21T12:11:45.073Z,44.96
2019-02-21T12:12:45.098Z,44.41
2019-02-21T12:13:45.126Z,44.77
2019-02-21T12:14:45.158Z,45.05
2019-02-21T12:15:45.188Z,45.53
2019-02-21T12:16:45.211Z,46.09
2019-02-21T12:17:45.238Z,46.47
2019-02-21T12:18:45.270Z,47.13
2019-02-21T12:19:45.295Z,48.53
2019-02-21T12:20:45.324Z,50.14
2019-02-21T12:21:45.351Z,51.43
2019-02-21T12:22:45.382Z,52.67
2019-02-21T12:23:45.408Z,53.99
2019-02-21T12:24:45.435Z,54.93
2019-02-21T12:25:45.467Z,56.04
2019-02-21T12:26:45.489Z,56.99
2019-02-21T12:27:45.522Z,57.93
2019-02-21T12:28:45.550Z,58.78
2019-02-21T12:29:45.576Z,60.30
2019-02-21T12:30:45.600Z,60.77
2019-02-21T12:31:45.625Z,61.33
2019-02-21T12:32:45.657Z,61.43
2019-02-21T12:33:45.680Z,62.09
2019-02-21T12:34:45.709Z,62.66
2019-02-21T12:35:45.732Z,63.13
2019-02-21T12:36:45.760Z,63.13
2019-02-21T12:37:45.785Z,62.85
2019-02-21T12:38:45.809Z,61.90
2019-02-21T12:39:45.839Z,61.43
2019-02-21T12:40:45.863Z,61.43
2019-02-21T12:41:45.890Z,60.96
2019-02-21T12:42:45.915Z,60.77
2019-02-21T12:43:45.938Z,60.58
2019-02-21T12:44:47.807Z,60.86
2019-02-21T12:45:45.989Z,61.15
2019-02-21T12:46:46.018Z,61.15
2019-02-21T12:47:50.845Z,61.52
2019-02-21T12:48:46.070Z,61.33
2019-02-21T12:49:46.095Z,61.43
2019-02-21T12:50:46.121Z,61.15
2019-02-21T12:51:46.144Z,61.43
2019-02-21T12:52:46.175Z,60.96